Time;durP1;ratioP1;P1;durP2;ratioP2;P2;SDS_P1;SDS_P2;PMS_P1;PMS_P2;Temp;Humidity;BMP_temperature;BMP_pressure;BME280_temperature;BME280_humidity;BME280_pressure;Samples;Min_cycle;Max_cycle;Signal;HPM_P1;HPM_P2
2021/12/23 00:01:15;;;;;;;2.20;1.80;;;20.90;27.80;;;;;;5047272;28;20023;-55
2021/12/23 00:03:41;;;;;;;2.03;1.42;;;20.90;28.30;;;;;;5036979;28;20037;-53
2021/12/23 00:06:06;;;;;;;2.38;1.90;;;20.90;27.80;;;;;;5040576;28;20029;-54
2021/12/23 00:08:33;;;;;;;2.00;1.60;;;20.90;27.80;;;;;;5053442;28;20029;-50
2021/12/23 00:10:59;;;;;;;2.10;1.60;;;20.80;27.70;;;;;;5044662;28;20025;-54
2021/12/23 00:13:25;;;;;;;2.47;1.65;;;20.80;27.70;;;;;;5055086;28;20128;-48
2021/12/23 00:23:42;;;;;;;2.40;1.77;;;20.80;27.80;;;;;;5043161;28;20489;-50
2021/12/23 00:26:08;;;;;;;2.72;1.60;;;20.80;27.80;;;;;;5045826;28;20029;-56
2021/12/23 00:28:34;;;;;;;3.33;1.90;;;20.80;27.80;;;;;;5049688;28;20029;-51
2021/12/23 00:31:01;;;;;;;2.90;1.92;;;20.80;27.80;;;;;;5046380;28;20021;-52
2021/12/23 00:33:28;;;;;;;2.38;1.83;;;20.80;27.80;;;;;;5041335;28;20037;-53
2021/12/23 00:35:57;;;;;;;2.25;1.63;;;20.70;27.80;;;;;;5050457;28;20041;-51
2021/12/23 00:38:29;;;;;;;2.78;1.77;;;20.80;27.80;;;;;;5056554;28;20029;-52
2021/12/23 00:40:57;;;;;;;2.63;2.00;;;20.70;27.80;;;;;;5058663;28;20420;-54
2021/12/23 00:43:24;;;;;;;2.70;1.60;;;20.70;27.80;;;;;;5058452;28;20037;-50
2021/12/23 00:45:50;;;;;;;2.30;1.77;;;20.80;27.80;;;;;;5051589;28;20320;-52
2021/12/23 00:48:17;;;;;;;2.10;1.67;;;20.70;27.80;;;;;;5055225;28;20074;-51
2021/12/23 00:50:44;;;;;;;2.22;1.65;;;20.70;27.80;;;;;;5058040;28;20021;-55
2021/12/23 00:53:10;;;;;;;1.45;1.30;;;20.70;27.80;;;;;;5057920;28;20044;-55
2021/12/23 00:55:37;;;;;;;1.90;1.38;;;20.70;27.80;;;;;;5053644;28;20017;-55
2021/12/23 00:58:03;;;;;;;2.50;1.55;;;20.70;27.80;;;;;;5051681;28;20106;-55
2021/12/23 01:00:30;;;;;;;2.42;1.75;;;20.70;27.80;;;;;;5058393;28;20029;-57
2021/12/23 01:02:59;;;;;;;1.90;1.48;;;20.70;27.80;;;;;;5054505;28;20037;-53
2021/12/23 01:05:25;;;;;;;2.33;1.80;;;20.70;27.80;;;;;;5038135;28;20026;-56
2021/12/23 01:07:51;;;;;;;2.10;1.70;;;20.70;27.80;;;;;;5051791;28;20063;-56
2021/12/23 01:10:18;;;;;;;2.97;1.90;;;20.70;27.80;;;;;;5058054;28;20036;-55
2021/12/23 01:12:50;;;;;;;2.47;1.83;;;20.70;27.80;;;;;;5050090;28;20037;-53
2021/12/23 01:17:57;;;;;;;2.55;1.60;;;20.60;27.80;;;;;;5027394;28;20347;-55
2021/12/23 01:20:30;;;;;;;2.40;1.98;;;20.70;27.80;;;;;;5054826;28;20029;-56
2021/12/23 01:22:58;;;;;;;2.03;1.65;;;20.60;27.80;;;;;;5056276;28;20017;-52
2021/12/23 01:25:25;;;;;;;1.83;1.55;;;20.60;27.80;;;;;;5057663;28;20025;-55
2021/12/23 01:27:51;;;;;;;1.90;1.75;;;20.60;27.80;;;;;;5056827;28;20040;-51
2021/12/23 01:30:17;;;;;;;2.30;1.67;;;20.60;27.80;;;;;;5058066;28;20029;-56
2021/12/23 01:32:46;;;;;;;2.33;1.73;;;20.60;27.80;;;;;;5051133;28;20057;-52
2021/12/23 01:35:12;;;;;;;2.58;1.70;;;20.60;27.80;;;;;;5037747;28;20064;-52
2021/12/23 01:37:38;;;;;;;1.88;1.70;;;20.60;27.80;;;;;;5048983;28;20096;-55
2021/12/23 01:40:06;;;;;;;2.20;1.75;;;20.60;27.80;;;;;;5040104;28;20325;-56
2021/12/23 01:42:32;;;;;;;2.53;1.80;;;20.60;27.70;;;;;;5051480;28;20040;-55
2021/12/23 01:44:57;;;;;;;2.22;1.80;;;20.60;27.70;;;;;;5037287;28;20025;-49
2021/12/23 01:47:23;;;;;;;2.63;1.70;;;20.60;27.70;;;;;;5042112;28;20025;-56
2021/12/23 01:49:50;;;;;;;2.00;1.70;;;20.60;27.70;;;;;;5037586;28;20328;-54
2021/12/23 01:52:16;;;;;;;2.10;1.80;;;20.60;27.70;;;;;;5047628;28;20321;-51
2021/12/23 01:54:42;;;;;;;2.20;1.95;;;20.60;27.70;;;;;;5056973;28;20103;-55
2021/12/23 01:57:08;;;;;;;2.53;2.17;;;20.50;27.70;;;;;;5047820;28;20167;-52
2021/12/23 01:59:34;;;;;;;1.55;1.42;;;20.60;27.70;;;;;;5037428;28;20321;-58
2021/12/23 02:02:00;;;;;;;2.50;2.03;;;20.50;27.70;;;;;;5044616;28;20025;-52
2021/12/23 02:04:26;;;;;;;2.03;1.45;;;20.50;27.70;;;;;;5057397;28;20045;-53
2021/12/23 02:06:52;;;;;;;2.47;1.90;;;20.50;27.70;;;;;;5056056;28;20016;-53
2021/12/23 02:09:20;;;;;;;2.00;1.60;;;20.50;27.70;;;;;;5057197;28;20036;-50
2021/12/23 02:11:46;;;;;;;2.25;1.85;;;20.50;27.60;;;;;;5055652;28;20028;-54
2021/12/23 02:14:12;;;;;;;2.40;1.80;;;20.50;27.60;;;;;;5056446;28;20036;-50
2021/12/23 02:16:38;;;;;;;2.50;1.73;;;20.50;27.70;;;;;;5055288;28;20025;-51
2021/12/23 02:19:13;;;;;;;2.45;1.98;;;20.50;27.60;;;;;;5056959;28;20092;-56
2021/12/23 02:21:42;;;;;;;2.50;1.83;;;20.50;27.70;;;;;;5055409;28;20063;-49
2021/12/23 02:24:08;;;;;;;2.15;1.88;;;20.50;27.60;;;;;;5056931;28;20068;-55
2021/12/23 02:26:38;;;;;;;2.03;1.83;;;20.50;27.60;;;;;;5054991;28;20052;-57
2021/12/23 02:29:03;;;;;;;2.63;1.90;;;20.50;27.60;;;;;;5055076;28;20039;-52
2021/12/23 02:31:50;;;;;;;2.67;1.92;;;20.50;27.60;;;;;;5039524;28;20017;-55
2021/12/23 02:34:17;;;;;;;2.58;1.95;;;20.50;27.60;;;;;;5056090;28;20121;-53
2021/12/23 02:36:52;;;;;;;2.67;2.20;;;20.40;27.60;;;;;;5052911;28;20108;-53
2021/12/23 02:39:18;;;;;;;2.97;2.10;;;20.50;27.60;;;;;;5036541;28;20325;-55
2021/12/23 02:41:44;;;;;;;3.40;2.03;;;20.40;27.60;;;;;;5041609;28;20040;-52
2021/12/23 02:44:12;;;;;;;3.38;2.22;;;20.40;27.50;;;;;;5056377;28;20428;-54
2021/12/23 02:46:38;;;;;;;2.08;1.58;;;20.40;27.50;;;;;;5056063;28;20025;-53
2021/12/23 02:49:04;;;;;;;2.63;1.85;;;20.40;27.50;;;;;;5056060;28;20297;-56
2021/12/23 02:51:30;;;;;;;2.28;2.03;;;20.40;27.50;;;;;;5054913;28;20035;-52
2021/12/23 02:53:56;;;;;;;2.40;1.83;;;20.40;27.50;;;;;;5056417;28;20025;-50
2021/12/23 02:56:22;;;;;;;2.30;1.77;;;20.40;27.50;;;;;;5055286;28;20078;-53
2021/12/23 02:58:48;;;;;;;2.35;2.08;;;20.40;27.50;;;;;;5055826;28;20040;-56
2021/12/23 03:01:16;;;;;;;2.53;1.95;;;20.40;27.50;;;;;;5055127;28;20033;-57
2021/12/23 03:03:43;;;;;;;1.90;1.45;;;20.40;27.50;;;;;;5056353;28;20339;-55
2021/12/23 03:06:11;;;;;;;2.22;1.80;;;20.40;27.50;;;;;;5053015;28;20065;-57
2021/12/23 03:08:43;;;;;;;3.55;1.98;;;20.40;27.50;;;;;;5053253;28;20025;-55
2021/12/23 03:11:11;;;;;;;2.42;1.95;;;20.40;27.50;;;;;;5054440;28;20037;-52
2021/12/23 03:13:38;;;;;;;2.63;1.77;;;20.40;27.50;;;;;;5055373;28;20052;-56
2021/12/23 03:16:05;;;;;;;2.05;1.65;;;20.40;27.50;;;;;;5054587;28;20025;-57
2021/12/23 03:18:32;;;;;;;2.45;2.05;;;20.40;27.50;;;;;;5055159;28;20040;-53
2021/12/23 03:20:59;;;;;;;2.55;1.75;;;20.40;27.50;;;;;;5055022;28;20037;-50
2021/12/23 03:23:25;;;;;;;2.25;1.88;;;20.40;27.50;;;;;;5037978;28;20360;-48
2021/12/23 03:25:51;;;;;;;3.10;2.20;;;20.40;27.40;;;;;;5053255;28;20021;-50
2021/12/23 03:28:17;;;;;;;2.60;1.98;;;20.40;27.50;;;;;;5039048;28;20432;-54
2021/12/23 03:30:43;;;;;;;3.28;2.03;;;20.40;27.50;;;;;;5054377;28;20043;-53
2021/12/23 03:33:09;;;;;;;2.45;1.67;;;20.40;27.50;;;;;;5055577;28;20033;-54
2021/12/23 03:35:36;;;;;;;2.42;1.80;;;20.30;27.40;;;;;;5056050;28;20083;-56
2021/12/23 03:38:03;;;;;;;2.33;1.70;;;20.30;27.40;;;;;;5054544;28;20025;-56
2021/12/23 03:40:29;;;;;;;2.40;1.90;;;20.40;27.40;;;;;;5055630;28;20033;-57
2021/12/23 03:42:54;;;;;;;2.42;2.10;;;20.30;27.90;;;;;;5054073;28;20082;-54
2021/12/23 03:45:20;;;;;;;2.50;2.08;;;20.30;27.40;;;;;;5055359;28;20378;-53
2021/12/23 03:47:50;;;;;;;2.45;1.73;;;20.30;27.40;;;;;;5051679;28;20017;-52
2021/12/23 03:50:18;;;;;;;3.35;1.83;;;20.30;27.40;;;;;;5054897;28;20021;-54
2021/12/23 03:52:44;;;;;;;3.40;2.33;;;20.30;27.40;;;;;;5051240;28;20348;-52
2021/12/23 03:55:12;;;;;;;2.55;1.90;;;20.30;27.90;;;;;;5055185;28;20116;-54
2021/12/23 03:57:38;;;;;;;2.63;2.00;;;20.30;27.40;;;;;;5033190;28;20044;-58
2021/12/23 04:00:09;;;;;;;2.38;2.17;;;20.30;27.40;;;;;;5055204;28;20058;-53
2021/12/23 04:02:35;;;;;;;2.83;1.85;;;20.30;27.40;;;;;;5050732;28;20345;-52
2021/12/23 04:05:02;;;;;;;2.60;2.05;;;20.20;27.40;;;;;;5055114;28;20025;-52
2021/12/23 04:07:28;;;;;;;2.42;1.85;;;20.30;27.40;;;;;;5032891;28;20033;-52
2021/12/23 04:09:53;;;;;;;3.05;2.10;;;20.20;27.40;;;;;;5053841;28;20035;-50
2021/12/23 04:12:19;;;;;;;2.70;1.88;;;20.20;27.30;;;;;;5053969;28;20091;-54
2021/12/23 04:14:45;;;;;;;3.63;1.95;;;20.20;27.40;;;;;;5040290;28;20021;-53
2021/12/23 04:17:11;;;;;;;2.05;1.85;;;20.20;27.30;;;;;;5044860;28;20041;-51
2021/12/23 04:19:36;;;;;;;2.55;2.15;;;20.20;27.30;;;;;;5031277;28;20025;-49
2021/12/23 04:22:02;;;;;;;2.65;2.03;;;20.20;27.30;;;;;;5043782;28;20025;-55
2021/12/23 04:24:28;;;;;;;2.55;2.08;;;20.20;27.30;;;;;;5044113;28;20459;-57
2021/12/23 04:26:54;;;;;;;2.05;1.70;;;20.20;27.30;;;;;;5042436;28;20386;-51
2021/12/23 04:29:20;;;;;;;3.15;2.13;;;20.20;27.30;;;;;;5043990;28;20044;-55
2021/12/23 04:31:45;;;;;;;2.88;2.05;;;20.20;27.30;;;;;;5041700;28;20108;-55
2021/12/23 04:34:11;;;;;;;2.38;1.85;;;20.20;27.30;;;;;;5028662;28;20029;-52
2021/12/23 04:36:37;;;;;;;2.55;1.90;;;20.20;27.30;;;;;;5043178;28;20029;-51
2021/12/23 04:39:05;;;;;;;3.75;1.88;;;20.20;27.30;;;;;;5028330;28;20099;-49
2021/12/23 04:41:31;;;;;;;2.63;1.83;;;20.20;27.30;;;;;;5053475;28;20035;-53
2021/12/23 04:43:58;;;;;;;2.08;1.67;;;20.20;27.30;;;;;;5054912;28;20134;-53
2021/12/23 04:46:24;;;;;;;2.65;2.00;;;20.20;27.30;;;;;;5046566;28;20025;-53
2021/12/23 04:48:51;;;;;;;2.45;2.05;;;20.20;27.30;;;;;;5047993;28;20491;-54
2021/12/23 04:51:17;;;;;;;2.88;2.00;;;20.20;27.30;;;;;;5053269;28;20013;-54
2021/12/23 04:53:44;;;;;;;2.63;2.03;;;20.10;27.20;;;;;;5055034;28;20056;-58
2021/12/23 04:56:13;;;;;;;2.33;2.00;;;20.10;27.20;;;;;;5043395;28;20108;-52
2021/12/23 04:58:40;;;;;;;2.97;2.15;;;20.10;27.20;;;;;;5034362;28;20080;-53
2021/12/23 05:01:09;;;;;;;2.13;1.90;;;20.10;27.30;;;;;;5044017;28;20084;-48
2021/12/23 05:03:35;;;;;;;2.35;1.95;;;20.10;27.20;;;;;;5034107;28;20045;-51
2021/12/23 05:06:01;;;;;;;3.25;2.38;;;20.20;27.30;;;;;;5053462;28;20048;-56
2021/12/23 05:08:27;;;;;;;2.63;2.15;;;20.10;27.20;;;;;;5050888;28;20013;-54
2021/12/23 05:10:52;;;;;;;2.42;2.00;;;20.10;27.20;;;;;;5043654;28;20336;-52
2021/12/23 05:13:18;;;;;;;2.60;2.00;;;20.10;27.20;;;;;;5053696;28;20043;-52
2021/12/23 05:15:44;;;;;;;3.45;2.45;;;20.10;27.20;;;;;;5053955;28;20036;-51
2021/12/23 05:18:10;;;;;;;3.10;2.40;;;20.10;27.20;;;;;;5035331;28;20344;-51
2021/12/23 05:20:36;;;;;;;2.65;2.40;;;20.10;27.20;;;;;;5042717;28;20025;-52
2021/12/23 05:23:02;;;;;;;2.90;2.40;;;20.10;27.20;;;;;;5057955;28;20095;-56
2021/12/23 05:25:28;;;;;;;2.67;2.20;;;20.10;27.20;;;;;;5044681;28;20021;-52
2021/12/23 05:27:55;;;;;;;3.08;2.47;;;20.10;27.20;;;;;;5057649;28;20033;-54
2021/12/23 05:30:23;;;;;;;3.00;2.30;;;20.10;27.20;;;;;;5043953;28;20021;-51
2021/12/23 05:32:49;;;;;;;2.60;2.40;;;20.10;27.20;;;;;;5057599;28;20033;-51
2021/12/23 05:35:17;;;;;;;2.58;2.20;;;20.10;27.20;;;;;;5056624;28;20017;-55
2021/12/23 05:37:44;;;;;;;4.38;2.50;;;20.10;27.20;;;;;;5057917;28;20309;-56
2021/12/23 05:40:12;;;;;;;3.85;2.40;;;20.10;27.20;;;;;;5044305;28;20031;-53
2021/12/23 05:42:39;;;;;;;2.33;1.92;;;20.10;27.20;;;;;;5057596;28;20028;-52
2021/12/23 05:45:05;;;;;;;3.08;2.53;;;20.10;27.20;;;;;;5040231;28;20082;-53
2021/12/23 05:47:30;;;;;;;4.47;2.60;;;20.10;27.20;;;;;;5052937;28;20032;-50
2021/12/23 05:49:56;;;;;;;3.80;2.78;;;20.10;27.20;;;;;;5055698;28;20028;-54
2021/12/23 05:52:22;;;;;;;3.47;2.72;;;20.10;27.20;;;;;;5055350;28;20345;-50
2021/12/23 05:54:48;;;;;;;3.00;2.38;;;20.00;27.10;;;;;;5056780;28;20040;-49
2021/12/23 05:57:14;;;;;;;2.75;2.42;;;20.10;27.20;;;;;;5044771;28;20025;-54
2021/12/23 05:59:39;;;;;;;3.45;2.60;;;20.10;27.20;;;;;;5051505;28;20025;-56
2021/12/23 06:02:06;;;;;;;3.58;3.17;;;20.00;27.20;;;;;;5055569;28;20032;-50
2021/12/23 06:04:33;;;;;;;3.90;3.30;;;20.00;27.10;;;;;;5049682;28;20104;-50
2021/12/23 06:06:59;;;;;;;3.67;2.75;;;20.00;27.10;;;;;;5039652;28;20021;-49
2021/12/23 06:09:25;;;;;;;4.63;3.17;;;20.00;27.10;;;;;;5056772;28;20443;-52
2021/12/23 06:11:51;;;;;;;4.13;3.00;;;20.00;27.10;;;;;;5047598;28;20064;-48
2021/12/23 06:14:18;;;;;;;3.40;3.10;;;20.00;27.10;;;;;;5055691;28;20063;-56
2021/12/23 06:16:44;;;;;;;3.58;3.05;;;20.00;27.20;;;;;;5053010;28;20025;-54
2021/12/23 06:19:10;;;;;;;3.65;2.92;;;20.00;27.10;;;;;;5056281;28;20115;-52
2021/12/23 06:21:36;;;;;;;4.22;3.25;;;20.00;27.10;;;;;;5055117;28;20542;-54
2021/12/23 06:24:05;;;;;;;3.28;2.75;;;20.00;27.10;;;;;;5057206;28;20028;-53
2021/12/23 06:26:31;;;;;;;5.22;3.47;;;20.00;27.10;;;;;;5055912;28;20044;-50
2021/12/23 06:28:58;;;;;;;3.55;2.95;;;20.00;27.10;;;;;;5056854;28;20051;-55
2021/12/23 06:31:24;;;;;;;3.97;3.45;;;20.00;27.00;;;;;;5054930;28;20025;-53
2021/12/23 06:33:50;;;;;;;3.67;3.17;;;20.00;27.00;;;;;;5055557;28;20098;-52
2021/12/23 06:36:17;;;;;;;4.20;3.55;;;20.00;27.00;;;;;;5055366;28;20055;-53
2021/12/23 06:38:44;;;;;;;4.35;3.53;;;20.00;27.00;;;;;;5056451;28;20177;-50
2021/12/23 06:41:12;;;;;;;4.25;3.42;;;20.00;27.40;;;;;;5051621;28;20028;-54
2021/12/23 06:43:38;;;;;;;4.25;3.40;;;20.00;26.90;;;;;;5054451;28;20056;-53
2021/12/23 06:46:04;;;;;;;4.65;3.30;;;19.90;26.90;;;;;;5050943;28;20036;-52
2021/12/23 06:48:31;;;;;;;3.50;3.08;;;20.00;26.90;;;;;;5018837;28;20037;-53
2021/12/23 06:50:57;;;;;;;6.78;3.35;;;20.00;26.90;;;;;;5038890;28;20463;-52
2021/12/23 06:53:24;;;;;;;4.38;3.25;;;19.90;26.90;;;;;;5041794;28;20040;-47
2021/12/23 06:55:51;;;;;;;3.63;3.30;;;19.90;26.90;;;;;;5054994;28;20108;-54
2021/12/23 06:58:18;;;;;;;4.53;3.63;;;19.90;26.90;;;;;;5056169;28;20036;-49
2021/12/23 07:00:44;;;;;;;4.43;3.70;;;20.00;27.00;;;;;;5046411;28;20053;-49
2021/12/23 07:03:11;;;;;;;4.68;3.72;;;19.90;26.90;;;;;;5052547;28;20347;-49
2021/12/23 07:05:36;;;;;;;4.60;3.72;;;19.90;26.90;;;;;;5055379;28;20100;-52
2021/12/23 07:08:09;;;;;;;4.93;3.30;;;19.90;26.90;;;;;;5055666;28;20116;-50
2021/12/23 07:10:35;;;;;;;4.00;3.38;;;19.90;26.90;;;;;;5055172;28;20455;-52
2021/12/23 07:13:01;;;;;;;4.40;4.00;;;19.90;26.90;;;;;;5055508;28;20033;-50
2021/12/23 07:15:28;;;;;;;4.57;3.65;;;19.90;26.90;;;;;;5031526;28;20057;-54
2021/12/23 07:17:55;;;;;;;4.10;3.65;;;19.90;26.90;;;;;;5043109;28;20064;-58
2021/12/23 07:20:22;;;;;;;5.05;4.00;;;19.90;26.90;;;;;;5051209;28;20036;-54
2021/12/23 07:22:48;;;;;;;5.05;3.58;;;19.90;27.00;;;;;;5055402;28;20029;-49
2021/12/23 07:25:15;;;;;;;4.05;3.55;;;19.90;27.10;;;;;;5055548;28;20036;-49
2021/12/23 07:27:42;;;;;;;4.80;3.60;;;19.90;27.10;;;;;;5037632;28;20035;-49
2021/12/23 07:30:10;;;;;;;4.55;3.53;;;19.90;27.10;;;;;;5055254;28;20037;-54
2021/12/23 07:32:36;;;;;;;4.10;3.70;;;19.80;27.10;;;;;;5054144;28;20301;-53
2021/12/23 07:35:02;;;;;;;5.72;3.50;;;19.90;27.20;;;;;;5037388;28;20331;-52
2021/12/23 07:37:30;;;;;;;5.47;3.33;;;19.90;27.30;;;;;;5045962;28;20031;-49
2021/12/23 07:39:57;;;;;;;3.33;2.92;;;19.90;27.30;;;;;;5029176;28;20025;-53
2021/12/23 07:42:26;;;;;;;3.92;3.53;;;19.90;27.40;;;;;;5045457;28;20048;-51
2021/12/23 07:44:54;;;;;;;3.63;3.10;;;20.00;27.40;;;;;;5028759;28;20021;-49
2021/12/23 07:47:20;;;;;;;3.63;3.20;;;20.00;27.50;;;;;;5038099;28;20107;-55
2021/12/23 07:49:46;;;;;;;3.53;3.20;;;20.00;27.40;;;;;;5048046;28;20029;-49
2021/12/23 07:52:13;;;;;;;4.32;3.50;;;20.10;27.40;;;;;;5028881;28;20037;-53
2021/12/23 07:54:39;;;;;;;3.88;3.13;;;20.20;27.50;;;;;;5053309;28;20474;-49
2021/12/23 07:57:06;;;;;;;4.00;3.30;;;20.20;27.40;;;;;;5053152;28;20021;-48
2021/12/23 07:59:33;;;;;;;5.13;3.65;;;20.20;27.40;;;;;;5054381;28;20056;-52
2021/12/23 08:02:00;;;;;;;3.97;3.15;;;20.20;27.30;;;;;;5021844;28;20091;-45
2021/12/23 08:04:27;;;;;;;4.25;3.47;;;20.30;27.30;;;;;;5035232;28;20067;-50
2021/12/23 08:06:57;;;;;;;4.05;3.40;;;20.40;27.30;;;;;;5035769;28;20077;-56
2021/12/23 08:09:25;;;;;;;3.85;3.30;;;20.40;27.30;;;;;;5041505;28;20459;-51
2021/12/23 08:11:52;;;;;;;3.72;3.13;;;20.40;27.30;;;;;;5050077;28;20057;-50
2021/12/23 08:14:19;;;;;;;3.80;3.47;;;20.50;27.30;;;;;;5035242;28;20044;-55
2021/12/23 08:16:45;;;;;;;3.40;3.10;;;20.50;27.30;;;;;;5045455;28;20488;-55
2021/12/23 08:19:15;;;;;;;4.07;3.28;;;20.50;27.20;;;;;;5039381;28;20032;-53
2021/12/23 08:21:41;;;;;;;3.80;3.00;;;20.50;27.20;;;;;;5035884;28;20013;-47
2021/12/23 08:24:13;;;;;;;3.80;3.03;;;20.60;27.30;;;;;;5049525;28;20040;-52
2021/12/23 08:26:41;;;;;;;4.18;3.05;;;20.60;27.30;;;;;;5054625;28;20025;-51
2021/12/23 08:29:08;;;;;;;3.75;3.22;;;20.60;27.20;;;;;;5054107;28;20328;-55
2021/12/23 08:31:34;;;;;;;4.10;3.33;;;20.60;27.10;;;;;;5036649;28;20040;-52
2021/12/23 08:34:01;;;;;;;4.40;3.75;;;20.60;27.00;;;;;;5053725;28;20037;-57
2021/12/23 08:36:26;;;;;;;4.00;3.55;;;20.60;26.90;;;;;;5054728;28;20106;-54
2021/12/23 08:38:52;;;;;;;4.13;3.47;;;20.60;26.90;;;;;;5055151;28;20060;-54
2021/12/23 08:41:18;;;;;;;5.43;4.13;;;20.60;26.80;;;;;;5053419;28;20364;-46
2021/12/23 08:43:44;;;;;;;4.55;4.05;;;20.60;26.80;;;;;;5036968;28;20040;-58
2021/12/23 08:46:11;;;;;;;4.75;3.75;;;20.60;26.90;;;;;;5054147;28;20043;-50
2021/12/23 08:48:37;;;;;;;4.47;3.90;;;20.50;26.80;;;;;;5054118;28;20025;-51
2021/12/23 08:51:03;;;;;;;4.13;3.08;;;20.50;26.90;;;;;;5054045;28;20033;-54
2021/12/23 08:53:29;;;;;;;5.47;3.03;;;20.50;27.10;;;;;;5054234;28;20024;-50
2021/12/23 08:55:55;;;;;;;4.38;3.38;;;20.50;27.20;;;;;;5053407;28;20313;-51
2021/12/23 08:58:21;;;;;;;3.65;3.13;;;20.50;27.30;;;;;;5057705;28;20025;-53
2021/12/23 09:00:47;;;;;;;4.90;3.55;;;20.50;27.20;;;;;;5040198;28;20020;-53
2021/12/23 09:03:13;;;;;;;4.90;3.45;;;20.50;27.10;;;;;;5057581;28;20115;-54
2021/12/23 09:05:40;;;;;;;3.78;3.17;;;20.50;27.10;;;;;;5055842;28;20029;-53
2021/12/23 09:08:07;;;;;;;4.05;3.50;;;20.50;27.10;;;;;;5046061;28;20032;-52
2021/12/23 09:10:34;;;;;;;4.05;3.20;;;20.50;27.00;;;;;;5040447;28;20336;-52
2021/12/23 09:13:00;;;;;;;3.65;3.25;;;20.50;27.00;;;;;;5057450;28;20448;-54
2021/12/23 09:15:26;;;;;;;4.47;3.20;;;20.50;27.10;;;;;;5057470;28;20026;-54
2021/12/23 09:17:53;;;;;;;3.63;3.25;;;20.50;27.10;;;;;;5054410;28;20559;-57
2021/12/23 09:20:21;;;;;;;4.75;4.00;;;20.50;27.10;;;;;;5046681;28;20025;-52
2021/12/23 09:22:49;;;;;;;5.28;4.05;;;20.50;27.00;;;;;;5041107;28;20075;-50
2021/12/23 09:25:25;;;;;;;7.00;4.20;;;20.40;26.90;;;;;;5051316;28;20336;-48
2021/12/23 09:28:04;;;;;;;5.47;3.88;;;20.50;27.40;;;;;;5055721;28;20029;-50
2021/12/23 09:33:16;;;;;;;4.13;3.70;;;20.40;26.80;;;;;;5045430;28;20056;-57
2021/12/23 09:35:43;;;;;;;4.95;3.78;;;20.40;26.80;;;;;;5034386;28;20112;-56
2021/12/23 09:38:10;;;;;;;4.45;3.58;;;20.40;26.80;;;;;;5044592;28;20022;-54
2021/12/23 09:40:37;;;;;;;4.85;4.35;;;20.40;26.80;;;;;;5051595;28;20093;-52
2021/12/23 09:43:09;;;;;;;4.75;4.22;;;20.40;26.80;;;;;;5020525;28;20068;-51
2021/12/23 09:45:36;;;;;;;4.80;4.28;;;20.40;26.80;;;;;;5056331;28;20056;-49
2021/12/23 09:48:04;;;;;;;5.43;4.03;;;20.40;26.80;;;;;;5056845;28;20036;-54
2021/12/23 09:50:34;;;;;;;5.70;4.28;;;20.40;26.90;;;;;;5056455;28;20429;-49
2021/12/23 09:53:02;;;;;;;5.00;4.50;;;20.40;26.80;;;;;;5025939;28;20126;-50
2021/12/23 09:55:28;;;;;;;4.90;4.18;;;20.30;26.80;;;;;;5053449;28;20170;-49
2021/12/23 09:57:58;;;;;;;5.10;4.18;;;20.30;26.80;;;;;;5043588;28;20031;-54
2021/12/23 10:00:27;;;;;;;4.35;3.92;;;20.40;26.80;;;;;;5057328;28;20025;-52
2021/12/23 10:02:54;;;;;;;4.75;3.78;;;20.40;26.80;;;;;;5048231;28;20387;-48
2021/12/23 10:05:25;;;;;;;10.13;4.25;;;20.30;26.80;;;;;;5055284;28;20021;-49
2021/12/23 10:07:54;;;;;;;17.15;5.10;;;20.40;27.00;;;;;;5038021;28;20020;-53
2021/12/23 10:10:26;;;;;;;12.65;5.03;;;20.30;27.00;;;;;;5049218;28;20029;-50
2021/12/23 10:13:16;;;;;;;10.73;4.15;;;20.40;27.10;;;;;;5037818;28;20033;-59
2021/12/23 10:38:22;;;;;;;5.75;3.55;;;20.40;27.40;;;;;;5043870;28;20028;-50
2021/12/23 10:40:52;;;;;;;4.80;3.58;;;20.40;27.40;;;;;;5050407;28;20063;-48
2021/12/23 10:43:34;;;;;;;5.75;3.78;;;20.40;27.50;;;;;;5051700;28;20039;-53
2021/12/23 10:46:06;;;;;;;5.22;4.10;;;20.50;27.50;;;;;;5056015;28;20100;-48
2021/12/23 10:48:34;;;;;;;5.35;4.00;;;20.40;27.40;;;;;;5054253;28;20033;-48
2021/12/23 10:51:07;;;;;;;5.03;3.90;;;20.40;27.40;;;;;;5055839;28;20031;-50
2021/12/23 10:53:46;;;;;;;4.88;3.67;;;20.40;27.40;;;;;;5055902;28;20037;-52
2021/12/23 10:59:20;;;;;;;5.50;3.95;;;20.40;27.30;;;;;;5056224;28;20125;-51
2021/12/23 11:02:16;;;;;;;5.55;3.80;;;20.40;27.30;;;;;;5055583;28;20490;-52
2021/12/23 11:05:08;;;;;;;5.07;3.55;;;20.40;27.30;;;;;;5055430;28;20051;-54
2021/12/23 11:08:10;;;;;;;4.30;3.70;;;20.40;27.30;;;;;;5037001;28;20024;-53
2021/12/23 11:11:05;;;;;;;4.55;3.47;;;20.40;27.30;;;;;;5055919;28;20029;-50
2021/12/23 11:30:47;;;;;;;3.53;3.08;;;20.40;27.50;;;;;;5055219;28;20032;-52
2021/12/23 11:44:00;;;;;;;4.95;3.80;;;20.40;27.50;;;;;;5054126;28;20032;-51
2021/12/23 11:46:43;;;;;;;5.32;3.63;;;20.40;27.50;;;;;;5053895;28;20086;-53
2021/12/23 11:49:12;;;;;;;4.47;4.00;;;20.40;27.50;;;;;;5051073;28;20021;-56
2021/12/23 11:54:11;;;;;;;4.85;3.95;;;20.40;27.50;;;;;;5052223;28;20032;-52
2021/12/23 11:56:51;;;;;;;5.25;4.20;;;20.40;27.50;;;;;;5053347;28;20107;-55
2021/12/23 11:59:19;;;;;;;4.70;3.67;;;20.40;27.50;;;;;;5049705;28;20090;-53
2021/12/23 12:01:52;;;;;;;5.35;3.20;;;20.40;27.60;;;;;;5053291;28;20038;-50
2021/12/23 12:04:24;;;;;;;4.07;3.38;;;20.40;27.80;;;;;;5033517;28;20063;-55
2021/12/23 12:06:52;;;;;;;4.47;3.45;;;20.40;28.00;;;;;;5052220;28;20108;-47
2021/12/23 12:09:22;;;;;;;4.80;3.70;;;20.50;28.20;;;;;;5046474;28;20113;-48
2021/12/23 12:12:05;;;;;;;4.43;3.60;;;20.50;28.30;;;;;;5049127;28;20087;-50
2021/12/23 12:14:38;;;;;;;4.63;3.67;;;20.60;28.70;;;;;;5046011;28;20032;-54
2021/12/23 12:17:23;;;;;;;4.28;3.13;;;20.60;28.80;;;;;;5049237;28;20508;-57
2021/12/23 12:20:04;;;;;;;4.90;4.00;;;20.70;29.00;;;;;;5050295;28;20024;-55
2021/12/23 12:22:45;;;;;;;6.05;3.67;;;20.70;29.00;;;;;;5048152;28;20029;-56
2021/12/23 12:25:23;;;;;;;4.50;3.78;;;20.70;29.10;;;;;;5052475;28;20067;-57
2021/12/23 12:28:09;;;;;;;4.80;3.67;;;20.80;29.20;;;;;;5052196;28;20049;-55
2021/12/23 12:30:36;;;;;;;3.38;2.70;;;20.80;29.10;;;;;;5034144;28;20406;-56
2021/12/23 12:33:10;;;;;;;3.75;3.15;;;20.90;29.10;;;;;;5050539;28;20170;-51
2021/12/23 12:35:36;;;;;;;3.50;2.80;;;20.90;29.10;;;;;;5052783;28;20033;-57
2021/12/23 12:38:17;;;;;;;4.88;3.15;;;20.90;29.00;;;;;;5052925;28;20111;-57
2021/12/23 12:41:07;;;;;;;4.57;3.30;;;21.00;29.20;;;;;;5052583;28;20037;-58
2021/12/23 12:43:45;;;;;;;4.85;3.03;;;21.10;29.40;;;;;;5052491;28;20021;-54
2021/12/23 12:46:22;;;;;;;3.17;2.67;;;21.10;29.50;;;;;;5049452;28;20033;-56
2021/12/23 12:48:58;;;;;;;5.43;3.13;;;21.20;29.70;;;;;;5051369;28;20025;-52
2021/12/23 12:51:31;;;;;;;3.60;3.00;;;21.20;29.80;;;;;;5048153;28;20035;-55
2021/12/23 12:54:04;;;;;;;4.40;3.20;;;21.20;29.90;;;;;;5052179;28;20048;-58
2021/12/23 12:56:34;;;;;;;3.70;3.08;;;21.30;30.00;;;;;;5052420;28;20044;-54
2021/12/23 12:59:00;;;;;;;3.55;2.83;;;21.30;30.20;;;;;;5051310;28;20437;-59
2021/12/23 13:01:37;;;;;;;6.28;3.45;;;21.30;30.30;;;;;;5052078;28;20355;-50
2021/12/23 13:04:06;;;;;;;5.20;4.07;;;21.40;30.50;;;;;;5049637;28;20041;-50
2021/12/23 13:06:39;;;;;;;4.03;3.13;;;21.40;30.70;;;;;;5050812;28;20051;-57
2021/12/23 13:09:32;;;;;;;5.50;4.03;;;21.40;30.90;;;;;;5035136;28;20099;-56
2021/12/23 13:12:29;;;;;;;5.50;3.83;;;21.40;31.00;;;;;;5047143;28;20048;-53
2021/12/23 13:15:19;;;;;;;5.90;4.18;;;21.40;31.00;;;;;;5032732;28;20021;-60
2021/12/23 13:18:09;;;;;;;7.90;3.97;;;21.50;30.90;;;;;;5052074;28;20171;-50
2021/12/23 13:20:58;;;;;;;4.90;4.10;;;21.60;30.80;;;;;;5050991;28;20021;-50
2021/12/23 13:23:37;;;;;;;5.95;4.18;;;21.70;30.70;;;;;;5052361;28;20056;-49
2021/12/23 13:26:06;;;;;;;4.60;3.78;;;21.80;30.60;;;;;;5049566;28;20025;-52
2021/12/23 13:28:47;;;;;;;6.25;3.80;;;21.80;30.50;;;;;;5051878;28;20016;-46
2021/12/23 13:31:24;;;;;;;6.82;3.78;;;21.90;30.40;;;;;;5043409;28;20029;-55
2021/12/23 13:33:55;;;;;;;4.82;3.83;;;22.00;30.20;;;;;;5052121;28;20037;-50
2021/12/23 13:36:28;;;;;;;3.92;3.50;;;22.10;30.10;;;;;;5053965;28;20052;-52
2021/12/23 13:38:58;;;;;;;5.03;3.35;;;22.10;30.00;;;;;;5050373;28;20447;-48
2021/12/23 13:41:29;;;;;;;4.70;3.67;;;22.20;29.80;;;;;;5052231;28;20060;-48
2021/12/23 13:43:58;;;;;;;3.70;3.22;;;22.30;29.70;;;;;;5052500;28;20175;-49
2021/12/23 13:46:29;;;;;;;5.88;3.70;;;22.40;29.60;;;;;;5054985;28;20063;-50
2021/12/23 13:49:04;;;;;;;5.72;3.78;;;22.50;29.50;;;;;;5051866;28;20041;-48
2021/12/23 13:51:33;;;;;;;4.93;3.70;;;22.60;29.40;;;;;;5052731;28;20486;-51
2021/12/23 13:54:11;;;;;;;4.50;3.40;;;22.60;29.20;;;;;;5052077;28;20044;-55
2021/12/23 13:56:40;;;;;;;4.53;3.63;;;22.70;29.10;;;;;;5055612;28;20043;-53
2021/12/23 13:59:08;;;;;;;4.18;3.63;;;22.80;29.10;;;;;;5051146;28;20021;-54
2021/12/23 14:01:34;;;;;;;4.40;3.50;;;22.80;29.10;;;;;;5055414;28;20071;-55
2021/12/23 14:04:00;;;;;;;4.90;3.63;;;22.90;29.10;;;;;;5054356;28;20064;-53